Time;durP1;ratioP1;P1;durP2;ratioP2;P2;SDS_P1;SDS_P2;PMS_P1;PMS_P2;Temp;Humidity;BMP_temperature;BMP_pressure;BME280_temperature;BME280_humidity;BME280_pressure;Samples;Min_cycle;Max_cycle;Signal;HPM_P1;HPM_P2
2022/05/14 00:00:58;;;;;;;9.30;2.92;;;11.50;99.90;;;;;;5048076;28;20051;-66
2022/05/14 00:03:25;;;;;;;8.75;2.53;;;11.50;99.90;;;;;;5047635;28;20143;-66
2022/05/14 00:05:53;;;;;;;11.70;2.53;;;11.50;99.90;;;;;;5045676;28;20041;-66
2022/05/14 00:08:20;;;;;;;8.30;2.58;;;11.50;99.90;;;;;;5082507;28;20558;-66
2022/05/14 00:13:30;;;;;;;8.73;2.35;;;11.50;99.90;;;;;;5080806;28;20041;-66
2022/05/14 00:15:56;;;;;;;8.73;2.70;;;11.40;99.90;;;;;;5052346;28;20309;-66
2022/05/14 00:18:23;;;;;;;7.60;2.67;;;11.40;99.90;;;;;;5047638;28;20399;-66
2022/05/14 00:20:50;;;;;;;9.98;3.13;;;11.50;99.90;;;;;;5046927;28;20165;-66
2022/05/14 00:23:16;;;;;;;7.20;2.67;;;11.40;99.90;;;;;;5050583;28;20407;-66
2022/05/14 00:25:42;;;;;;;9.63;3.03;;;11.60;99.90;;;;;;5050023;28;20033;-66
2022/05/14 00:28:08;;;;;;;10.55;2.55;;;11.60;99.90;;;;;;5079360;28;20044;-66
2022/05/14 00:30:36;;;;;;;6.72;2.78;;;11.60;99.90;;;;;;5054007;28;20086;-66
2022/05/14 00:33:02;;;;;;;13.15;2.67;;;11.60;99.90;;;;;;5052165;28;20669;-66
2022/05/14 00:35:28;;;;;;;10.88;2.92;;;11.60;99.90;;;;;;5047869;28;20494;-66
2022/05/14 00:37:54;;;;;;;8.13;2.58;;;11.70;99.90;;;;;;5078101;28;20095;-66
2022/05/14 00:40:32;;;;;;;13.98;2.55;;;11.60;99.90;;;;;;5048768;28;20124;-66
2022/05/14 00:42:59;;;;;;;14.18;3.67;;;11.60;99.90;;;;;;5047496;28;20069;-66
2022/05/14 00:45:26;;;;;;;10.38;2.47;;;11.70;99.90;;;;;;5049647;28;20041;-66
2022/05/14 00:47:54;;;;;;;9.82;2.97;;;11.70;99.90;;;;;;5078030;28;20578;-66
2022/05/14 00:50:43;;;;;;;10.32;2.92;;;11.70;99.90;;;;;;5049104;28;20045;-66
2022/05/14 00:53:34;;;;;;;8.75;2.67;;;11.60;99.90;;;;;;5049283;28;20036;-66
2022/05/14 00:56:05;;;;;;;9.20;2.25;;;11.60;99.90;;;;;;5047948;28;20391;-66
2022/05/14 00:58:48;;;;;;;8.75;2.97;;;11.60;99.90;;;;;;5049258;28;20079;-66
2022/05/14 01:01:14;;;;;;;9.80;2.53;;;11.70;99.90;;;;;;5048916;28;20509;-66
2022/05/14 01:03:41;;;;;;;17.00;3.35;;;11.20;99.90;;;;;;5079179;28;20037;-67
2022/05/14 01:06:10;;;;;;;11.63;3.08;;;11.70;99.90;;;;;;5081869;28;20120;-66
2022/05/14 01:08:36;;;;;;;15.25;3.38;;;11.60;99.90;;;;;;5043356;28;20127;-66
2022/05/14 01:11:03;;;;;;;9.23;2.75;;;11.70;99.90;;;;;;5049200;28;20395;-66
2022/05/14 01:13:28;;;;;;;16.52;3.33;;;11.70;99.90;;;;;;5051008;28;20063;-66
2022/05/14 01:16:02;;;;;;;9.18;2.35;;;11.70;99.90;;;;;;5053354;28;20041;-66
2022/05/14 01:18:31;;;;;;;10.85;2.63;;;11.80;99.90;;;;;;5046867;28;20049;-66
2022/05/14 01:21:17;;;;;;;9.90;2.25;;;11.80;99.90;;;;;;5051906;28;20049;-66
2022/05/14 01:26:41;;;;;;;11.40;3.10;;;11.80;99.90;;;;;;5076970;28;20048;-66
2022/05/14 01:29:09;;;;;;;11.98;2.42;;;11.70;99.90;;;;;;5044816;28;20419;-66
2022/05/14 01:31:35;;;;;;;11.82;2.28;;;11.70;99.90;;;;;;5079310;28;20059;-66
2022/05/14 01:34:05;;;;;;;10.38;2.35;;;11.80;99.90;;;;;;5050243;28;20036;-66
2022/05/14 01:36:32;;;;;;;8.93;2.53;;;11.70;99.90;;;;;;5054836;28;20492;-66
2022/05/14 01:38:58;;;;;;;6.90;2.33;;;11.70;99.90;;;;;;5048870;28;20430;-66
2022/05/14 01:41:24;;;;;;;11.65;2.63;;;11.70;99.90;;;;;;5049199;28;20040;-66
2022/05/14 01:43:50;;;;;;;9.50;2.20;;;11.70;99.90;;;;;;5043337;28;20049;-66
2022/05/14 01:46:16;;;;;;;12.98;2.97;;;11.60;99.90;;;;;;5049406;28;20479;-66
2022/05/14 01:48:41;;;;;;;11.30;2.70;;;11.60;99.90;;;;;;5046383;28;20041;-66
2022/05/14 01:51:07;;;;;;;10.80;3.58;;;11.60;99.90;;;;;;5035681;28;20106;-66
2022/05/14 01:53:33;;;;;;;8.32;2.65;;;11.60;99.90;;;;;;5076034;28;20078;-66
2022/05/14 01:55:59;;;;;;;9.15;3.05;;;11.60;99.90;;;;;;5046857;28;20170;-66
2022/05/14 01:58:36;;;;;;;10.65;2.70;;;11.80;99.90;;;;;;5045950;28;20033;-66
2022/05/14 02:01:27;;;;;;;10.65;3.00;;;11.70;99.90;;;;;;5053384;28;20127;-66
2022/05/14 02:04:02;;;;;;;8.57;2.92;;;11.70;99.90;;;;;;5056296;28;20032;-66
2022/05/14 02:06:29;;;;;;;8.70;2.80;;;11.50;99.90;;;;;;5081872;28;20044;-67
2022/05/14 02:08:55;;;;;;;7.20;2.05;;;11.50;99.90;;;;;;5054747;28;20521;-66
2022/05/14 02:11:22;;;;;;;10.73;2.67;;;11.40;99.90;;;;;;5020282;28;20044;-66
2022/05/14 02:13:49;;;;;;;9.70;2.72;;;11.40;99.90;;;;;;5082459;28;20056;-66
2022/05/14 02:16:15;;;;;;;8.82;2.80;;;11.40;99.90;;;;;;5052067;28;20882;-66
2022/05/14 02:18:42;;;;;;;7.35;2.22;;;11.30;99.90;;;;;;5053577;28;20059;-66
2022/05/14 02:21:08;;;;;;;8.60;2.25;;;11.30;99.90;;;;;;5054365;28;20043;-66
2022/05/14 02:23:36;;;;;;;14.10;3.38;;;11.20;99.90;;;;;;5047497;28;20041;-66
2022/05/14 02:26:03;;;;;;;9.77;2.25;;;11.20;99.90;;;;;;5048351;28;20048;-66
2022/05/14 02:28:29;;;;;;;8.65;2.80;;;11.20;99.90;;;;;;5047211;28;20037;-66
2022/05/14 02:30:54;;;;;;;10.07;3.00;;;11.10;99.90;;;;;;5050547;28;20549;-66
2022/05/14 02:33:20;;;;;;;9.27;2.75;;;11.00;99.90;;;;;;5056755;28;20043;-66
2022/05/14 02:35:46;;;;;;;7.85;2.35;;;11.00;99.90;;;;;;5053826;28;20431;-66
2022/05/14 02:38:12;;;;;;;8.25;2.58;;;11.00;99.90;;;;;;5054171;28;20036;-66
2022/05/14 02:40:38;;;;;;;6.82;2.40;;;11.00;99.90;;;;;;5051690;28;20625;-66
2022/05/14 02:43:05;;;;;;;10.48;3.28;;;11.00;99.90;;;;;;5052545;28;20083;-66
2022/05/14 02:45:31;;;;;;;9.05;2.45;;;11.00;99.90;;;;;;5053993;28;20653;-66
2022/05/14 02:47:57;;;;;;;11.15;2.80;;;10.90;99.90;;;;;;5054636;28;20045;-66
2022/05/14 02:50:22;;;;;;;10.00;2.95;;;10.90;99.90;;;;;;5050111;28;20045;-66
2022/05/14 02:52:48;;;;;;;14.35;3.60;;;10.90;99.90;;;;;;5076700;28;20039;-66
2022/05/14 02:55:14;;;;;;;14.15;3.42;;;10.80;99.90;;;;;;5052436;28;20032;-66
2022/05/14 02:57:40;;;;;;;14.27;3.70;;;10.80;99.90;;;;;;5049277;28;20090;-66
2022/05/14 03:00:09;;;;;;;10.60;3.80;;;10.80;99.90;;;;;;5046441;28;20522;-66
2022/05/14 03:02:35;;;;;;;12.80;3.53;;;10.80;99.90;;;;;;5037058;28;20048;-66
2022/05/14 03:05:01;;;;;;;8.30;2.90;;;10.70;99.90;;;;;;5050405;28;20037;-66
2022/05/14 03:07:27;;;;;;;16.70;3.38;;;10.70;99.90;;;;;;5082240;28;20036;-66
2022/05/14 03:09:53;;;;;;;12.05;3.75;;;10.70;99.90;;;;;;5078300;28;20090;-66
2022/05/14 03:12:21;;;;;;;8.18;2.65;;;10.60;99.90;;;;;;5078199;28;20045;-66
2022/05/14 03:14:48;;;;;;;16.58;3.80;;;10.70;99.90;;;;;;5050789;28;20063;-66
2022/05/14 03:17:14;;;;;;;13.23;4.65;;;10.60;99.90;;;;;;5051172;28;20067;-66
2022/05/14 03:19:40;;;;;;;15.55;4.25;;;10.60;99.90;;;;;;5049841;28;20492;-66
2022/05/14 03:22:06;;;;;;;10.90;3.75;;;10.60;99.90;;;;;;5084177;28;20044;-66
2022/05/14 03:24:32;;;;;;;15.02;3.83;;;10.60;99.90;;;;;;5079103;28;20759;-66
2022/05/14 03:26:59;;;;;;;19.33;4.32;;;10.50;99.90;;;;;;5052692;28;20555;-66
2022/05/14 03:29:25;;;;;;;10.55;3.05;;;10.50;99.90;;;;;;5050439;28;20077;-66
2022/05/14 03:31:50;;;;;;;10.07;3.70;;;10.50;99.90;;;;;;5047222;28;20088;-66
2022/05/14 03:34:17;;;;;;;12.40;3.88;;;10.50;99.90;;;;;;5051837;28;20068;-66
2022/05/14 03:36:43;;;;;;;13.45;3.63;;;10.50;99.90;;;;;;5086024;28;20057;-66
2022/05/14 03:39:08;;;;;;;16.17;3.30;;;10.40;99.90;;;;;;5051758;28;20052;-66
2022/05/14 03:41:35;;;;;;;13.70;3.90;;;10.40;99.90;;;;;;5048826;28;20041;-66
2022/05/14 03:44:01;;;;;;;8.10;2.90;;;10.30;99.90;;;;;;5047607;28;20519;-66
2022/05/14 03:46:27;;;;;;;12.88;3.72;;;10.40;99.90;;;;;;5055166;28;20293;-66
2022/05/14 03:48:52;;;;;;;14.73;4.13;;;10.30;99.90;;;;;;5053179;28;20033;-66
2022/05/14 03:51:18;;;;;;;10.60;3.70;;;10.30;99.90;;;;;;5053257;28;20048;-66
2022/05/14 03:53:44;;;;;;;10.25;3.10;;;10.40;99.90;;;;;;5054053;28;20033;-66
2022/05/14 03:56:10;;;;;;;14.27;4.05;;;10.30;99.90;;;;;;5053302;28;20532;-66
2022/05/14 03:58:36;;;;;;;13.63;4.57;;;10.40;99.90;;;;;;5049277;28;20036;-66
2022/05/14 04:01:04;;;;;;;20.35;5.32;;;10.40;99.90;;;;;;5049615;28;20037;-66
2022/05/14 04:03:31;;;;;;;26.50;6.63;;;10.40;99.90;;;;;;5053562;28;20592;-66
2022/05/14 04:05:58;;;;;;;29.48;7.05;;;10.50;99.90;;;;;;5033857;28;20129;-66
2022/05/14 04:08:24;;;;;;;20.88;6.78;;;10.50;99.90;;;;;;5053645;28;20041;-66
2022/05/14 04:10:49;;;;;;;16.83;5.35;;;10.60;99.90;;;;;;5051229;28;20388;-66
2022/05/14 04:13:15;;;;;;;23.73;6.72;;;10.60;99.90;;;;;;5048456;28;20040;-66
2022/05/14 04:15:41;;;;;;;17.40;6.10;;;10.80;99.90;;;;;;5034475;28;20120;-66
2022/05/14 04:18:06;;;;;;;23.70;7.13;;;10.90;99.90;;;;;;5049531;28;20052;-66
2022/05/14 04:20:32;;;;;;;19.00;7.32;;;11.10;99.90;;;;;;5078756;28;20045;-66
2022/05/14 04:22:58;;;;;;;18.60;6.10;;;11.30;99.90;;;;;;5051373;28;20045;-66
2022/05/14 04:25:24;;;;;;;22.23;6.75;;;11.30;99.90;;;;;;5045960;28;20128;-66
2022/05/14 04:27:50;;;;;;;21.35;5.35;;;11.30;99.90;;;;;;5056518;28;20037;-66
2022/05/14 04:30:16;;;;;;;20.10;7.30;;;11.30;99.90;;;;;;5051710;28;20082;-66
2022/05/14 04:32:43;;;;;;;17.80;6.55;;;11.50;99.90;;;;;;5054917;28;20479;-66
2022/05/14 04:35:11;;;;;;;20.90;6.43;;;11.70;99.90;;;;;;5051678;28;20049;-66
2022/05/14 04:37:37;;;;;;;19.58;6.93;;;11.80;99.90;;;;;;5085962;28;20044;-66
2022/05/14 04:40:04;;;;;;;23.27;6.35;;;12.00;99.90;;;;;;5047147;28;20048;-66
2022/05/14 04:42:30;;;;;;;19.30;6.22;;;12.10;99.90;;;;;;5049227;28;20044;-66
2022/05/14 04:44:56;;;;;;;20.90;7.55;;;12.20;99.90;;;;;;5047529;28;20514;-66
2022/05/14 04:47:21;;;;;;;24.63;7.80;;;12.40;99.90;;;;;;5053174;28;20110;-66
2022/05/14 04:49:49;;;;;;;26.70;8.02;;;12.50;99.90;;;;;;5050305;28;20471;-66
2022/05/14 04:52:15;;;;;;;27.67;7.45;;;12.50;99.90;;;;;;5052521;28;20115;-66
2022/05/14 04:54:41;;;;;;;22.88;6.25;;;12.70;99.90;;;;;;5052231;28;20044;-66
2022/05/14 04:57:07;;;;;;;22.27;7.05;;;12.90;99.90;;;;;;5083066;28;20041;-66
2022/05/14 04:59:34;;;;;;;17.83;6.00;;;13.00;99.90;;;;;;5048940;28;20471;-66
2022/05/14 05:04:48;;;;;;;20.70;6.53;;;13.30;99.90;;;;;;5046424;28;20045;-66
2022/05/14 05:07:13;;;;;;;16.50;6.97;;;13.70;99.90;;;;;;5054638;28;20050;-66
2022/05/14 05:09:39;;;;;;;19.13;6.75;;;14.10;99.90;;;;;;5050477;28;20045;-66
2022/05/14 05:12:05;;;;;;;28.08;6.65;;;14.70;99.90;;;;;;5081779;28;20109;-66
2022/05/14 05:14:31;;;;;;;18.60;5.47;;;15.40;99.90;;;;;;5048117;28;20053;-66
2022/05/14 05:17:00;;;;;;;21.70;5.68;;;16.30;99.90;;;;;;5050362;28;20051;-67
2022/05/14 05:19:26;;;;;;;20.00;6.43;;;17.00;99.90;;;;;;5051568;28;20417;-66
2022/05/14 05:21:51;;;;;;;16.50;5.50;;;17.80;99.90;;;;;;5045898;28;20045;-67
2022/05/14 05:24:17;;;;;;;13.25;5.70;;;18.50;99.90;;;;;;5077504;28;20044;-67
2022/05/14 05:26:43;;;;;;;18.02;5.03;;;19.30;99.90;;;;;;5048930;28;20384;-67
2022/05/14 05:29:09;;;;;;;21.10;5.72;;;20.00;99.90;;;;;;5048254;28;20037;-67
2022/05/14 05:31:35;;;;;;;23.42;8.25;;;20.60;99.90;;;;;;5053229;28;20037;-67
2022/05/14 05:34:02;;;;;;;23.23;5.28;;;21.00;99.90;;;;;;5047698;28;20044;-66
2022/05/14 05:36:28;;;;;;;21.58;6.13;;;21.10;99.90;;;;;;5047941;28;20044;-66
2022/05/14 05:38:54;;;;;;;23.48;6.32;;;20.80;99.90;;;;;;5048846;28;20045;-67
2022/05/14 05:41:20;;;;;;;19.60;5.47;;;20.30;99.90;;;;;;5048422;28;20040;-67
2022/05/14 05:43:47;;;;;;;21.30;6.03;;;19.90;99.90;;;;;;5049489;28;20037;-67
2022/05/14 05:46:13;;;;;;;23.38;6.80;;;19.60;99.90;;;;;;5051150;28;20561;-67
2022/05/14 05:48:40;;;;;;;18.02;6.32;;;19.30;99.90;;;;;;5045966;28;20041;-67
2022/05/14 05:51:06;;;;;;;23.55;6.28;;;19.10;99.90;;;;;;5047423;28;20040;-67
2022/05/14 05:59:01;;;;;;;28.63;7.05;;;19.60;99.90;;;;;;5040640;28;20057;-67
2022/05/14 06:01:27;;;;;;;21.42;6.43;;;19.90;99.90;;;;;;5047843;28;20044;-67
2022/05/14 06:03:52;;;;;;;22.23;6.53;;;20.20;99.90;;;;;;5043573;28;20037;-67
2022/05/14 06:06:19;;;;;;;21.33;6.30;;;20.40;99.90;;;;;;5047598;28;20036;-67
2022/05/14 06:08:47;;;;;;;31.73;7.50;;;20.50;99.90;;;;;;5047016;28;20040;-67
2022/05/14 06:11:13;;;;;;;27.48;7.20;;;20.50;99.90;;;;;;5047950;28;20063;-67
2022/05/14 06:13:39;;;;;;;27.35;5.95;;;20.60;99.90;;;;;;5077574;28;20044;-67
2022/05/14 06:16:05;;;;;;;23.27;5.65;;;20.80;99.90;;;;;;5050846;28;20529;-67
2022/05/14 06:18:30;;;;;;;21.63;5.70;;;21.00;99.90;;;;;;5048126;28;20036;-67
2022/05/14 06:20:56;;;;;;;22.25;6.22;;;21.20;99.90;;;;;;5043762;28;20069;-67
2022/05/14 06:23:22;;;;;;;15.05;5.35;;;21.30;99.90;;;;;;5048297;28;20475;-67
2022/05/14 06:25:47;;;;;;;23.83;5.78;;;21.40;99.90;;;;;;5048126;28;20444;-67
2022/05/14 06:28:13;;;;;;;23.98;5.90;;;21.40;99.90;;;;;;5048953;28;20041;-67
2022/05/14 06:30:43;;;;;;;23.77;5.40;;;21.70;99.90;;;;;;5045350;28;20033;-67
2022/05/14 06:33:12;;;;;;;20.35;5.20;;;22.00;98.60;;;;;;5049382;28;20483;-67
2022/05/14 06:35:39;;;;;;;19.83;5.07;;;22.20;99.50;;;;;;5073431;28;20103;-67
2022/05/14 06:38:06;;;;;;;19.73;4.97;;;22.60;99.20;;;;;;5048003;28;20044;-67
2022/05/14 06:40:33;;;;;;;19.17;4.43;;;22.90;98.20;;;;;;5046256;28;20132;-67
2022/05/14 06:42:59;;;;;;;19.92;5.00;;;23.10;96.60;;;;;;5044071;28;20041;-67
2022/05/14 06:45:25;;;;;;;25.55;5.40;;;23.10;95.30;;;;;;5046606;28;20052;-67
2022/05/14 06:47:51;;;;;;;21.35;5.40;;;23.10;95.20;;;;;;5054088;28;20131;-67
2022/05/14 06:50:17;;;;;;;15.77;4.50;;;23.10;94.60;;;;;;5052784;28;20097;-67
2022/05/14 06:52:48;;;;;;;19.60;6.00;;;23.00;94.00;;;;;;5051303;28;20059;-67
2022/05/14 06:55:17;;;;;;;23.35;5.50;;;23.00;93.80;;;;;;5048404;28;20087;-67
2022/05/14 06:57:43;;;;;;;20.92;5.68;;;23.10;93.40;;;;;;5082791;28;20101;-67
2022/05/14 07:00:09;;;;;;;21.08;5.43;;;23.00;93.00;;;;;;5061668;28;20056;-67
2022/05/14 07:02:36;;;;;;;15.68;4.55;;;23.20;92.50;;;;;;5048087;28;20445;-67
2022/05/14 07:07:47;;;;;;;21.25;5.30;;;23.40;92.70;;;;;;5045239;28;20045;-67
2022/05/14 07:10:13;;;;;;;18.67;5.32;;;23.60;91.80;;;;;;5042930;28;20051;-67
2022/05/14 07:12:39;;;;;;;19.92;5.18;;;23.70;91.30;;;;;;5043749;28;20037;-67
2022/05/14 07:15:06;;;;;;;23.88;5.88;;;23.80;91.00;;;;;;5049534;28;20094;-67
2022/05/14 07:17:32;;;;;;;15.80;4.85;;;23.90;88.90;;;;;;5050673;28;20639;-67
2022/05/14 07:19:58;;;;;;;14.95;4.63;;;23.80;87.40;;;;;;5053785;28;20048;-67
2022/05/14 07:22:23;;;;;;;20.15;5.07;;;23.60;85.20;;;;;;5044025;28;20414;-67
2022/05/14 07:24:49;;;;;;;18.63;4.72;;;23.40;83.10;;;;;;5049443;28;20040;-67
2022/05/14 07:27:16;;;;;;;19.25;4.95;;;23.30;85.50;;;;;;5052006;28;20051;-67
2022/05/14 07:29:43;;;;;;;16.25;4.53;;;23.30;86.60;;;;;;5051810;28;20043;-67
2022/05/14 07:32:11;;;;;;;17.75;4.68;;;23.50;84.70;;;;;;5045363;28;20196;-67
2022/05/14 07:34:37;;;;;;;17.83;4.72;;;23.50;86.60;;;;;;5050792;28;20898;-67
2022/05/14 07:37:12;;;;;;;22.85;4.45;;;23.50;85.10;;;;;;5044766;28;20127;-67
2022/05/14 07:39:47;;;;;;;17.65;5.18;;;23.60;83.30;;;;;;5048327;28;20055;-67
2022/05/14 07:42:19;;;;;;;18.13;5.47;;;23.50;85.10;;;;;;5054880;28;20071;-67
2022/05/14 07:44:48;;;;;;;14.32;4.22;;;23.60;83.00;;;;;;5055734;28;20595;-67
2022/05/14 07:47:14;;;;;;;19.70;4.60;;;23.70;83.50;;;;;;5082627;28;20037;-67
2022/05/14 07:49:46;;;;;;;16.02;4.20;;;23.80;82.90;;;;;;5052846;28;20051;-67
2022/05/14 07:52:13;;;;;;;15.70;3.78;;;23.60;79.50;;;;;;5046232;28;20033;-67
2022/05/14 07:54:39;;;;;;;17.08;4.55;;;23.60;79.60;;;;;;5054319;28;20102;-67
2022/05/14 07:57:06;;;;;;;18.77;4.97;;;23.60;77.90;;;;;;5049001;28;20044;-65
2022/05/14 07:59:34;;;;;;;18.25;5.18;;;23.10;74.60;;;;;;5053712;28;20511;-65
2022/05/14 08:01:59;;;;;;;20.45;5.32;;;22.90;77.10;;;;;;5083620;28;20037;-65
2022/05/14 08:04:25;;;;;;;15.30;4.50;;;22.80;78.30;;;;;;5053967;28;20086;-65
2022/05/14 08:06:51;;;;;;;19.65;4.50;;;22.90;81.00;;;;;;5053335;28;20413;-65
2022/05/14 08:09:16;;;;;;;18.17;4.80;;;22.90;78.70;;;;;;5048293;28;20087;-65
2022/05/14 08:11:43;;;;;;;17.13;4.45;;;22.80;77.50;;;;;;5081351;28;20048;-65
2022/05/14 08:14:08;;;;;;;19.33;4.65;;;22.50;76.40;;;;;;5047897;28;20134;-65
2022/05/14 08:16:34;;;;;;;23.05;5.32;;;22.50;80.70;;;;;;5049384;28;20613;-65
2022/05/14 08:19:00;;;;;;;21.45;4.75;;;22.30;78.20;;;;;;5085089;28;20045;-65
2022/05/14 08:26:55;;;;;;;19.52;4.57;;;22.40;82.10;;;;;;5078321;28;20076;-65
2022/05/14 08:29:22;;;;;;;18.23;4.10;;;22.60;80.30;;;;;;5079741;28;20083;-65
2022/05/14 08:31:49;;;;;;;19.77;5.72;;;22.60;79.30;;;;;;5078704;28;20136;-65
2022/05/14 08:34:14;;;;;;;18.20;4.22;;;22.80;81.60;;;;;;5050283;28;20905;-65
2022/05/14 08:36:41;;;;;;;22.95;5.05;;;23.10;82.00;;;;;;5044012;28;20098;-65
2022/05/14 08:39:07;;;;;;;18.70;3.95;;;23.30;82.90;;;;;;5051213;28;20454;-65
2022/05/14 08:41:37;;;;;;;15.77;4.03;;;23.30;81.10;;;;;;5050851;28;20040;-65
2022/05/14 08:44:16;;;;;;;18.02;4.53;;;23.00;80.60;;;;;;5086002;28;20494;-65
2022/05/14 08:46:43;;;;;;;18.63;4.57;;;22.80;80.00;;;;;;5053191;28;20041;-64
2022/05/14 08:49:17;;;;;;;14.38;4.22;;;22.60;80.10;;;;;;5055551;28;20043;-65
2022/05/14 08:51:47;;;;;;;18.40;4.85;;;22.50;80.70;;;;;;5045915;28;20052;-65
2022/05/14 08:54:13;;;;;;;17.17;4.30;;;22.50;80.90;;;;;;5054869;28;20036;-65
2022/05/14 08:57:09;;;;;;;20.20;5.45;;;22.80;78.00;;;;;;5079399;28;20509;-65
2022/05/14 08:59:46;;;;;;;18.10;5.10;;;22.90;80.00;;;;;;5038986;28;20133;-65
2022/05/14 09:02:20;;;;;;;20.20;4.65;;;22.90;79.40;;;;;;5050819;28;20037;-65
2022/05/14 09:04:47;;;;;;;16.48;4.82;;;22.80;76.80;;;;;;5052288;28;20102;-65
2022/05/14 09:07:13;;;;;;;19.00;4.85;;;22.50;77.90;;;;;;5047407;28;20043;-65
2022/05/14 09:09:53;;;;;;;12.77;4.03;;;22.30;79.40;;;;;;5053460;28;20032;-65
2022/05/14 09:12:26;;;;;;;18.88;4.40;;;22.10;79.50;;;;;;5049701;28;20063;-65
2022/05/14 09:15:01;;;;;;;18.85;4.70;;;22.20;79.70;;;;;;5072971;28;20063;-65
2022/05/14 09:17:29;;;;;;;;;;;22.10;79.90;;;;;;5049035;28;20506;-65
2022/05/14 09:19:55;;;;;;;15.43;4.80;;;22.20;79.50;;;;;;5083007;28;20387;-65
2022/05/14 09:22:30;;;;;;;16.35;4.07;;;22.50;82.80;;;;;;5054533;28;20174;-65
2022/05/14 09:25:15;;;;;;;21.25;6.47;;;22.60;80.00;;;;;;5047321;28;20044;-67
2022/05/14 09:27:44;;;;;;;18.20;4.32;;;22.50;79.00;;;;;;5050714;28;20471;-67
2022/05/14 09:30:21;;;;;;;17.02;4.53;;;22.50;76.40;;;;;;5046076;28;20048;-68
2022/05/14 09:32:46;;;;;;;18.63;4.15;;;22.70;76.70;;;;;;5042792;28;20045;-68
2022/05/14 09:35:14;;;;;;;13.45;3.78;;;22.90;79.30;;;;;;5045036;28;20048;-68
2022/05/14 09:37:41;;;;;;;15.43;4.35;;;23.00;75.70;;;;;;5049098;28;20495;-68
2022/05/14 09:40:19;;;;;;;17.70;4.13;;;22.80;74.90;;;;;;5047968;28;20049;-68
2022/05/14 09:42:52;;;;;;;23.25;4.22;;;22.50;76.10;;;;;;5051392;28;20057;-67
2022/05/14 09:45:29;;;;;;;18.67;4.75;;;22.20;75.90;;;;;;5046460;28;20045;-67
2022/05/14 09:47:55;;;;;;;19.38;4.22;;;22.10;74.50;;;;;;5082970;28;20036;-67
2022/05/14 09:50:30;;;;;;;15.00;4.68;;;22.00;78.60;;;;;;5052178;28;20036;-67
2022/05/14 09:52:57;;;;;;;;;;;22.20;79.70;;;;;;5040230;28;20067;-67
2022/05/14 09:55:32;;;;;;;17.80;4.63;;;22.20;76.40;;;;;;5048578;28;19917;-68
2022/05/14 09:58:16;;;;;;;16.40;4.45;;;22.00;76.80;;;;;;5052396;28;20037;-67
2022/05/14 10:01:19;;;;;;;15.80;4.63;;;21.90;79.40;;;;;;5078745;28;20040;-67
2022/05/14 10:04:06;;;;;;;19.40;4.68;;;22.00;81.30;;;;;;4981879;28;20502;-67
2022/05/14 10:06:43;;;;;;;16.05;4.03;;;22.20;82.20;;;;;;5066135;28;20616;-67
2022/05/14 10:09:37;;;;;;;17.83;4.18;;;22.50;80.00;;;;;;5049204;28;20037;-67
2022/05/14 10:12:26;;;;;;;22.25;4.50;;;22.50;79.30;;;;;;5044776;28;20052;-67
2022/05/14 10:15:27;;;;;;;18.25;4.78;;;22.90;81.60;;;;;;5046986;28;20441;-68
2022/05/14 10:18:04;;;;;;;18.00;5.75;;;23.10;77.10;;;;;;5051859;28;20045;-68
2022/05/14 10:20:37;;;;;;;15.50;4.28;;;23.40;78.60;;;;;;5079302;28;20040;-67
2022/05/14 10:29:31;;;;;;;15.85;4.93;;;23.90;72.70;;;;;;5047708;28;20079;-67
2022/05/14 10:31:56;;;;;;;24.83;4.97;;;23.80;75.50;;;;;;5077934;28;20390;-67
2022/05/14 10:34:41;;;;;;;19.45;5.20;;;23.90;77.20;;;;;;5047743;28;20052;-67
2022/05/14 10:37:31;;;;;;;18.67;4.70;;;23.90;70.90;;;;;;5051330;28;20465;-67
2022/05/14 10:40:31;;;;;;;15.77;3.85;;;23.70;69.80;;;;;;5054624;28;20067;-67
2022/05/14 10:43:29;;;;;;;19.63;4.40;;;23.40;72.40;;;;;;5086128;28;20052;-67
2022/05/14 10:45:57;;;;;;;18.23;3.78;;;23.20;74.20;;;;;;5044844;28;20808;-67
2022/05/14 10:48:44;;;;;;;21.38;5.13;;;23.00;74.70;;;;;;5078239;28;20045;-67
2022/05/14 10:51:18;;;;;;;23.52;4.72;;;22.70;75.20;;;;;;5050975;28;20041;-67
2022/05/14 10:53:44;;;;;;;16.45;4.10;;;22.60;76.10;;;;;;5051738;28;20041;-66
2022/05/14 10:56:23;;;;;;;15.82;3.72;;;22.50;76.00;;;;;;5044061;28;20044;-67
2022/05/14 10:58:51;;;;;;;16.50;4.40;;;22.40;76.50;;;;;;5048773;28;20063;-67
2022/05/14 11:01:42;;;;;;;22.15;4.63;;;22.20;76.20;;;;;;5043004;28;20045;-67
2022/05/14 11:04:17;;;;;;;16.58;3.97;;;22.10;76.40;;;;;;5055458;28;20044;-67
2022/05/14 11:07:04;;;;;;;16.73;4.88;;;22.10;76.00;;;;;;5048467;28;20046;-67
2022/05/14 11:09:46;;;;;;;17.92;4.50;;;22.00;74.40;;;;;;5048932;28;20041;-67
2022/05/14 11:12:21;;;;;;;20.90;4.60;;;22.00;76.60;;;;;;5054405;28;20037;-67
2022/05/14 11:14:54;;;;;;;17.15;4.22;;;21.90;74.70;;;;;;5080041;28;20048;-67
2022/05/14 11:17:31;;;;;;;15.93;3.53;;;21.90;76.30;;;;;;5054457;28;20036;-67
2022/05/14 11:20:03;;;;;;;19.85;5.55;;;21.90;77.40;;;;;;5055770;28;20519;-67
2022/05/14 11:22:50;;;;;;;16.35;4.40;;;21.80;78.20;;;;;;5055814;28;20040;-67
2022/05/14 11:25:19;;;;;;;16.02;4.85;;;21.80;77.90;;;;;;5044985;28;20147;-66
2022/05/14 11:28:23;;;;;;;19.90;6.57;;;22.00;76.40;;;;;;5055897;28;20037;-67
2022/05/14 11:30:57;;;;;;;15.80;3.78;;;22.20;75.10;;;;;;5040292;28;20044;-67
2022/05/14 11:33:28;;;;;;;18.60;4.15;;;22.60;73.30;;;;;;5044932;28;20043;-67
2022/05/14 11:35:58;;;;;;;18.55;4.43;;;22.60;72.00;;;;;;5055678;28;20037;-67
2022/05/14 11:38:23;;;;;;;16.95;3.83;;;22.50;73.50;;;;;;5057314;28;20040;-67
2022/05/14 11:41:07;;;;;;;19.45;4.50;;;22.40;73.30;;;;;;5049411;28;20061;-67
2022/05/14 11:43:36;;;;;;;16.17;3.92;;;22.20;74.40;;;;;;5049187;28;20051;-68
2022/05/14 11:46:39;;;;;;;31.33;5.55;;;22.00;73.80;;;;;;5049555;28;20529;-67
2022/05/14 11:49:25;;;;;;;37.45;8.18;;;21.90;73.10;;;;;;5049236;28;20040;-67
2022/05/14 11:52:16;;;;;;;27.35;5.60;;;21.90;75.60;;;;;;5051065;28;20044;-67
2022/05/14 11:54:49;;;;;;;21.67;6.60;;;22.10;77.10;;;;;;5028690;28;20041;-68
2022/05/14 11:57:40;;;;;;;16.58;4.43;;;22.30;74.70;;;;;;5082421;28;20080;-70
2022/05/14 12:00:21;;;;;;;16.33;3.60;;;22.60;75.80;;;;;;5051176;28;20619;-69
2022/05/14 12:02:54;;;;;;;20.98;4.38;;;22.90;74.70;;;;;;5049724;28;20645;-69
2022/05/14 12:05:28;;;;;;;22.10;4.53;;;22.80;71.50;;;;;;5046499;28;20051;-68
2022/05/14 12:08:10;;;;;;;21.02;4.13;;;22.70;73.40;;;;;;5047129;28;20170;-69
2022/05/14 12:10:51;;;;;;;18.20;5.00;;;22.70;74.40;;;;;;5046087;28;20033;-69
2022/05/14 12:13:16;;;;;;;30.23;4.80;;;22.90;76.30;;;;;;5076861;28;20033;-69
2022/05/14 12:15:51;;;;;;;23.88;4.88;;;23.00;75.50;;;;;;5082840;28;20098;-68
2022/05/14 12:18:18;;;;;;;;;;;23.00;73.80;;;;;;5051104;28;20043;-70
2022/05/14 12:21:00;;;;;;;19.20;4.78;;;23.00;73.10;;;;;;5050485;28;19974;-71
2022/05/14 12:23:35;;;;;;;19.63;5.25;;;22.70;70.20;;;;;;5047793;28;20045;-69
2022/05/14 12:26:17;;;;;;;21.10;4.32;;;22.60;71.50;;;;;;5048761;28;20040;-70
2022/05/14 12:28:43;;;;;;;20.58;5.25;;;22.40;72.00;;;;;;5049876;28;20052;-69
2022/05/14 12:34:00;;;;;;;14.65;4.13;;;22.20;71.40;;;;;;5050960;28;20491;-67
2022/05/14 12:36:35;;;;;;;16.77;3.78;;;22.20;72.80;;;;;;5076462;28;20128;-67
2022/05/14 12:39:06;;;;;;;;;;;22.20;73.80;;;;;;5049412;28;20174;-67
2022/05/14 12:41:41;;;;;;;16.40;4.55;;;22.10;72.40;;;;;;5049986;28;19921;-67
2022/05/14 12:44:22;;;;;;;19.38;4.68;;;22.00;73.10;;;;;;5048343;28;20033;-67
2022/05/14 12:46:54;;;;;;;23.15;5.25;;;22.00;73.30;;;;;;5072911;28;20044;-67
2022/05/14 12:49:52;;;;;;;17.13;4.38;;;22.10;71.80;;;;;;5051789;28;20383;-67
2022/05/14 12:52:28;;;;;;;11.15;3.45;;;22.10;71.70;;;;;;5044242;28;20507;-67
2022/05/14 12:54:59;;;;;;;18.88;5.15;;;22.10;71.10;;;;;;5046277;28;20045;-67
2022/05/14 12:57:27;;;;;;;19.98;4.18;;;22.00;71.70;;;;;;5049410;28;20507;-67
2022/05/14 12:59:54;;;;;;;111.30;15.50;;;22.10;74.10;;;;;;5051475;28;21029;-68
2022/05/14 13:02:27;;;;;;;22.33;5.25;;;22.10;74.70;;;;;;5051071;28;20574;-68
2022/05/14 13:05:09;;;;;;;18.95;4.00;;;22.00;71.80;;;;;;5047424;28;20044;-68
2022/05/14 13:07:45;;;;;;;19.20;4.50;;;22.10;74.20;;;;;;5049862;28;20052;-69
2022/05/14 13:10:11;;;;;;;15.65;4.13;;;22.20;69.60;;;;;;5049734;28;20040;-69
2022/05/14 13:12:37;;;;;;;17.83;4.57;;;22.20;72.00;;;;;;5052120;28;20372;-69
2022/05/14 13:15:06;;;;;;;17.90;4.78;;;22.30;71.50;;;;;;5051461;28;20376;-69
2022/05/14 13:17:36;;;;;;;81.35;13.45;;;22.30;72.20;;;;;;5052950;28;20041;-69
2022/05/14 13:20:23;;;;;;;59.70;10.32;;;22.40;72.30;;;;;;5050917;28;20091;-69
2022/05/14 13:23:01;;;;;;;42.28;6.97;;;22.30;71.80;;;;;;5049108;28;20040;-70
2022/05/14 13:25:34;;;;;;;287.35;48.47;;;22.10;70.40;;;;;;5082186;28;20033;-70